Foster, Virginia
Current Conditions -  °F | °C
As of 12:55 PM on Monday 24 Nov 2014 (Local Time) from KW75 Reporting Station
Clear Clear  
Wind Chill: 72°   Ceiling: Unl
Heat Index: 72°   Visibility: 10mi
Dew Point: 58°   Wind: 16mph
Humidity: 60%   Direction: 200°SSW
Pressure: 29.72"   Gusts: 25mph
Location:  37.45°N, 76.39°W
Report Text: KW75 241755Z AUTO 20014G22KT 10SM CLR 22/14 A2972 RMK AO1 T02240142 10225 20185
Loading
Personal Weather Stations






























Interactive Weather Map New forecast layout! Learn more

10-Day Weather Forecast

Advertisements
Track Severe Weather on mobile